Phuket, Thailand

7:07 PM ICT on August 21, 2014 (GMT +0700)
Phuket International | Change Station
CLOSE
Current Station
Airport
Location: Phuket,
Elevation: 30 ft
Nearby Weather Stations

Elev 30 ft 8.11 °N, 98.32 °E | Updated 7 minutes ago

Mostly Cloudy
Mostly Cloudy
79 °F
Feels Like 79 °F
N
0
Wind Variable Wind from North

Today
High -- | Low -- °F
--% Chance of Precip.
Yesterday
High -- | Low -- °F
Precip. -- in
6:19 AM 6:40 PM
Waning Crescent, 14% visible
Pressure 29.77 in
Visibility 6.2 miles
Clouds Few 2200 ft
Mostly Cloudy 30000 ft
Dew Point 75 °F
Humidity 89%
Rainfall 0.00 in
Snow Depth Not available.
UV 0 out of 12
Pollen Not available.
Air Quality Not available.
Flu Activity Not available.
METAR VTSP 211200Z 00000KT 9999 FEW022 BKN300 26/24 Q1008 A2978 NOSIG

More Conditions Fewer Conditions

Pressure 29.77 in
Visibility 6.2 miles
Clouds Few 2200 ft
Mostly Cloudy 30000 ft
Dew Point 75 °F
Humidity 89%
Rainfall 0.00 in
Snow Depth Not available.
UV 0 out of 12
Pollen Not available.
Air Quality Not available.
Flu Activity Not available.
METAR VTSP 211200Z 00000KT 9999 FEW022 BKN300 26/24 Q1008 A2978 NOSIG

More Conditions Fewer Conditions

10-Day Weather Forecast

Almanac

Astronomy

Aug. 21, 2014 Rise Set
Actual Time 6:19 AM ICT 6:40 PM ICT
Civil Twilight 5:58 AM ICT 7:01 PM ICT
Nautical Twilight 5:33 AM ICT 7:26 PM ICT
Astronomical Twilight 5:08 AM ICT 7:51 PM ICT
Moon 2:43 AM ICT 3:28 PM ICT
Length of Visible Light 13h 03m
Length of Day
12h 20m
Tomorrow will be 0m 25s shorter.
Waning Crescent, 14% of the Moon is Illuminated
Today
Waning Crescent
Aug 25
New
Sep 2
First Quarter
Sep 8
Full
Sep 15
Last Quarter

Yesterday's Extremes

Country Highs Country Lows

Community

WunderPhotos

Upload Photos

1,745,882 photos uploaded!

Nearby

Snow Depth

Not available.

Earthquake Activity

City Distance Mag. Time & Date
No recent earthquake activity has been reported nearby.
Minimum magnitude displayed is 2.5.

Coastal Water Temperatures

Place Temperature
No Stations Reporting

Nearby Weather Stations